Time;durP1;ratioP1;P1;durP2;ratioP2;P2;SDS_P1;SDS_P2;PMS_P1;PMS_P2;Temp;Humidity;BMP_temperature;BMP_pressure;BME280_temperature;BME280_humidity;BME280_pressure;Samples;Min_cycle;Max_cycle;Signal;HPM_P1;HPM_P2
2023/11/21 03:57:03;;;;;;;2.47;0.90;;;;;;;10.95;56.03;94419.28;6099474;23;20022;-86
2023/11/21 03:59:31;;;;;;;2.13;0.75;;;;;;;11.06;55.69;94423.13;6097830;23;20041;-85
2023/11/21 04:01:57;;;;;;;2.85;0.93;;;;;;;11.15;54.97;94427.09;6122170;23;20017;-85
2023/11/21 04:04:22;;;;;;;2.03;0.80;;;;;;;10.92;56.45;94424.09;6097978;23;20081;-85
2023/11/21 04:06:48;;;;;;;2.45;0.88;;;;;;;10.98;55.71;94414.69;6096797;23;20033;-85
2023/11/21 04:14:27;;;;;;;3.13;0.60;;;;;;;10.70;56.11;94426.06;6132991;23;20028;-85
2023/11/21 04:19:17;;;;;;;2.47;0.73;;;;;;;10.93;56.05;94423.09;6109302;23;20029;-86
2023/11/21 04:21:43;;;;;;;3.70;0.60;;;;;;;10.81;56.18;94435.88;6098287;23;20243;-85
2023/11/21 04:24:09;;;;;;;2.70;0.80;;;;;;;10.76;56.88;94438.28;6097860;23;20013;-85
2023/11/21 04:26:37;;;;;;;1.55;0.60;;;;;;;10.86;56.59;94448.31;6074324;23;20014;-85
2023/11/21 04:29:04;;;;;;;5.82;0.60;;;;;;;10.82;57.00;94453.09;6098035;23;20010;-85
2023/11/21 04:36:46;;;;;;;1.20;0.50;;;;;;;10.61;57.63;94445.47;6098658;23;20022;-85
2023/11/21 04:39:11;;;;;;;1.13;0.60;;;;;;;10.44;58.01;94445.81;6102960;23;20014;-84
2023/11/21 04:41:39;;;;;;;1.25;0.60;;;;;;;10.55;57.98;94450.44;6127057;23;20029;-85
2023/11/21 04:44:08;;;;;;;2.13;0.60;;;;;;;10.60;57.42;94462.03;6148144;23;20017;-84
2023/11/21 04:46:33;;;;;;;1.60;0.77;;;;;;;10.72;57.04;94452.69;6132324;23;20021;-85
2023/11/21 04:48:59;;;;;;;2.20;0.60;;;;;;;10.75;57.21;94455.69;6157213;23;20032;-85
2023/11/21 04:51:25;;;;;;;1.67;0.63;;;;;;;10.81;57.48;94466.28;6157477;23;20013;-85
2023/11/21 04:53:50;;;;;;;3.45;0.70;;;;;;;10.62;58.52;94463.44;6156968;23;20005;-85
2023/11/21 04:56:16;;;;;;;3.22;0.80;;;;;;;10.53;58.77;94456.84;6129867;23;20029;-85
2023/11/21 04:58:43;;;;;;;2.17;0.60;;;;;;;10.53;59.26;94460.25;6097821;23;20053;-85
2023/11/21 05:01:08;;;;;;;2.75;0.70;;;;;;;10.63;59.70;94470.25;6073875;23;20078;-85
2023/11/21 05:03:34;;;;;;;2.78;0.85;;;;;;;10.44;60.11;94461.41;6076413;23;20006;-85
2023/11/21 05:13:35;;;;;;;3.20;1.00;;;;;;;10.30;61.38;94470.09;6080012;23;20018;-85
2023/11/21 05:16:05;;;;;;;2.67;1.00;;;;;;;10.39;61.08;94481.97;6125380;23;20012;-85
2023/11/21 05:18:31;;;;;;;4.10;1.40;;;;;;;10.39;61.07;94468.19;6124913;23;20009;-84
2023/11/21 05:20:59;;;;;;;5.55;1.23;;;;;;;10.28;61.39;94480.72;6125083;23;20084;-85
2023/11/21 05:23:24;;;;;;;3.03;1.00;;;;;;;10.43;60.82;94472.78;6101375;23;20073;-85
2023/11/21 05:25:52;;;;;;;3.30;1.15;;;;;;;10.50;60.45;94486.63;6125508;23;20009;-84
2023/11/21 05:28:18;;;;;;;2.70;1.00;;;;;;;10.43;60.56;94492.78;6124983;23;20014;-85
2023/11/21 05:30:44;;;;;;;4.20;1.30;;;;;;;10.37;60.93;94478.78;6125152;23;20089;-84
2023/11/21 05:33:09;;;;;;;3.95;1.13;;;;;;;10.50;60.49;94497.00;6100733;23;20088;-85
2023/11/21 05:35:35;;;;;;;3.90;1.50;;;;;;;10.26;60.94;94494.88;6125208;23;20002;-85
2023/11/21 05:38:00;;;;;;;2.70;1.75;;;;;;;10.23;60.71;94484.88;6101375;23;20045;-85
2023/11/21 05:40:29;;;;;;;3.83;1.60;;;;;;;10.06;61.47;94495.59;6124158;23;20002;-84
2023/11/21 05:42:59;;;;;;;6.07;1.60;;;;;;;10.17;60.72;94487.25;6101165;23;20070;-85
2023/11/21 05:45:24;;;;;;;4.18;1.30;;;;;;;10.15;60.88;94493.66;6124583;23;20010;-85
2023/11/21 05:47:50;;;;;;;2.92;1.00;;;;;;;10.15;60.80;94491.06;6124793;23;20022;-85
2023/11/21 05:55:17;;;;;;;3.20;1.15;;;;;;;10.06;61.08;94500.00;6138496;23;20022;-85
2023/11/21 05:57:44;;;;;;;3.55;1.10;;;;;;;9.87;61.97;94504.09;6100796;23;20014;-84
2023/11/21 06:00:21;;;;;;;3.17;1.10;;;;;;;9.99;61.52;94510.34;6100802;23;20019;-85
2023/11/21 06:02:50;;;;;;;4.63;1.10;;;;;;;10.42;60.38;94512.78;6100547;23;20044;-85
2023/11/21 06:05:17;;;;;;;3.90;1.27;;;;;;;10.14;61.09;94505.81;6100332;23;20006;-85
2023/11/21 06:07:43;;;;;;;1.83;1.00;;;;;;;10.27;60.61;94512.88;6125066;23;20014;-84
2023/11/21 06:10:12;;;;;;;2.15;0.95;;;;;;;10.17;60.97;94515.84;6100989;23;20033;-85
2023/11/21 06:12:37;;;;;;;4.43;0.82;;;;;;;10.14;60.84;94513.63;6125874;23;20026;-84
2023/11/21 06:15:25;;;;;;;3.22;0.80;;;;;;;10.25;60.77;94521.88;6075159;23;20053;-84
2023/11/21 06:17:52;;;;;;;2.72;1.20;;;;;;;10.29;60.99;94528.28;6124640;23;20089;-85
2023/11/21 06:20:18;;;;;;;3.88;0.95;;;;;;;10.32;60.37;94525.34;6098758;23;20016;-84
2023/11/21 06:22:49;;;;;;;1.80;1.00;;;;;;;10.14;60.83;94518.81;6099116;23;20092;-85
2023/11/21 06:25:15;;;;;;;2.83;0.90;;;;;;;10.15;60.81;94525.63;6099543;23;20081;-85
2023/11/21 06:27:45;;;;;;;1.02;0.70;;;;;;;10.14;60.33;94518.03;6099526;23;20044;-85
2023/11/21 06:30:15;;;;;;;1.42;0.70;;;;;;;10.06;60.43;94531.16;6099761;23;20037;-85
2023/11/21 06:35:15;;;;;;;2.45;0.70;;;;;;;10.06;60.24;94525.97;6136349;23;20022;-86
2023/11/21 06:37:48;;;;;;;1.63;0.70;;;;;;;10.35;59.15;94532.75;6075341;23;20006;-86
2023/11/21 06:40:18;;;;;;;2.25;0.80;;;;;;;10.22;59.20;94519.66;6076440;23;20049;-87
2023/11/21 06:42:44;;;;;;;6.70;1.27;;;;;;;10.01;60.05;94517.94;6099394;23;20095;-86
2023/11/21 06:45:11;;;;;;;57.80;4.65;;;;;;;10.08;60.23;94535.19;6098924;23;20009;-86
2023/11/21 06:47:37;;;;;;;3.58;1.10;;;;;;;9.77;61.12;94517.41;6098830;23;20025;-86
2023/11/21 06:50:04;;;;;;;2.45;0.75;;;;;;;9.53;62.14;94531.59;6099080;23;20096;-86
2023/11/21 06:52:29;;;;;;;2.50;0.90;;;;;;;9.57;62.54;94538.81;6099310;23;20024;-85
2023/11/21 06:54:57;;;;;;;3.17;0.82;;;;;;;9.41;63.41;94523.53;6099516;23;20017;-85
2023/11/21 06:59:51;;;;;;;2.22;1.00;;;;;;;9.43;62.98;94541.50;6123394;23;20053;-85
2023/11/21 07:02:20;;;;;;;1.80;0.75;;;;;;;9.54;63.09;94538.41;6099939;23;20029;-86
2023/11/21 07:04:46;;;;;;;2.47;0.80;;;;;;;9.51;63.10;94539.56;6075589;23;20017;-86
2023/11/21 07:07:12;;;;;;;3.22;0.93;;;;;;;9.22;63.15;94537.94;6074861;23;20018;-86
2023/11/21 07:09:38;;;;;;;1.02;0.80;;;;;;;9.34;62.89;94549.41;6098244;23;20104;-86
2023/11/21 07:12:06;;;;;;;2.55;0.90;;;;;;;9.30;62.94;94542.97;6099118;23;20006;-86
2023/11/21 07:14:32;;;;;;;1.63;0.70;;;;;;;9.53;61.62;94549.78;6098972;23;20017;-86
2023/11/21 07:16:57;;;;;;;1.73;0.60;;;;;;;9.58;61.83;94556.00;6098970;23;20015;-86
2023/11/21 07:19:23;;;;;;;1.35;0.93;;;;;;;9.69;62.16;94552.09;6098692;23;20117;-86
2023/11/21 07:21:51;;;;;;;1.48;0.80;;;;;;;9.87;61.52;94567.22;6099248;23;20005;-85
2023/11/21 07:26:43;;;;;;;3.22;2.10;;;;;;;9.77;61.73;94553.75;6123558;23;20033;-86
2023/11/21 07:29:09;;;;;;;2.58;0.98;;;;;;;9.49;61.97;94545.94;6073646;23;20013;-86
2023/11/21 07:31:34;;;;;;;1.52;0.60;;;;;;;9.71;62.23;94555.31;6097961;23;20044;-86
2023/11/21 07:34:00;;;;;;;3.20;0.70;;;;;;;9.88;62.10;94552.41;6098982;23;20013;-86
2023/11/21 07:36:26;;;;;;;2.40;0.70;;;;;;;9.81;61.60;94547.19;6099032;23;20013;-86
2023/11/21 07:38:52;;;;;;;2.45;0.60;;;;;;;9.86;62.24;94551.81;6075682;23;20006;-86
2023/11/21 07:41:18;;;;;;;1.85;0.73;;;;;;;10.08;60.38;94550.75;6099039;23;20014;-85
2023/11/21 07:43:45;;;;;;;1.40;0.70;;;;;;;9.62;61.40;94545.25;6099408;23;20032;-86
2023/11/21 07:46:12;;;;;;;1.88;1.00;;;;;;;9.98;60.81;94563.31;6098706;23;20009;-85
2023/11/21 07:48:38;;;;;;;0.55;0.50;;;;;;;9.71;61.03;94549.31;6098831;23;20017;-85
2023/11/21 07:51:09;;;;;;;0.77;0.70;;;;;;;9.53;61.43;94547.19;6099057;23;20048;-85
2023/11/21 07:53:35;;;;;;;;;;;;;;;9.59;61.34;94562.81;6099007;23;20025;-84
2023/11/21 07:56:08;;;;;;;1.40;0.30;;;;;;;9.57;61.17;94557.00;6098134;23;19904;-86
2023/11/21 07:58:37;;;;;;;1.98;0.57;;;;;;;9.55;60.74;94550.38;6098714;23;20005;-86
2023/11/21 08:01:03;;;;;;;0.95;0.40;;;;;;;9.62;60.66;94555.66;6098970;23;20069;-85
2023/11/21 08:03:32;;;;;;;0.40;0.22;;;;;;;9.47;59.43;94547.94;6098477;23;20013;-85
2023/11/21 08:06:00;;;;;;;1.20;0.43;;;;;;;9.49;59.56;94543.34;6097576;23;20010;-85
2023/11/21 08:08:26;;;;;;;1.00;0.47;;;;;;;9.71;59.98;94559.69;6098374;23;20006;-87
2023/11/21 08:10:58;;;;;;;0.45;0.30;;;;;;;9.92;59.58;94558.88;6098707;23;20014;-85
2023/11/21 08:13:25;;;;;;;0.65;0.40;;;;;;;9.89;59.36;94546.25;6098892;23;20005;-85
2023/11/21 08:15:50;;;;;;;0.77;0.30;;;;;;;9.95;59.69;94550.69;6074808;23;20017;-85
2023/11/21 08:18:17;;;;;;;3.63;1.45;;;;;;;9.76;60.76;94547.75;6102349;23;20009;-85
2023/11/21 08:20:47;;;;;;;2.35;1.50;;;;;;;9.97;60.40;94561.69;6074651;23;20009;-85
2023/11/21 08:23:16;;;;;;;1.38;0.70;;;;;;;9.99;60.08;94554.50;6075135;23;20012;-85
2023/11/21 08:25:45;;;;;;;1.30;0.50;;;;;;;9.91;60.39;94562.44;6097894;23;20034;-85
2023/11/21 08:28:11;;;;;;;1.27;0.40;;;;;;;9.24;62.77;94561.91;6098628;23;20074;-85
2023/11/21 08:30:37;;;;;;;1.65;0.47;;;;;;;9.22;63.20;94563.88;6098456;23;20002;-86
2023/11/21 08:33:03;;;;;;;0.75;0.40;;;;;;;9.48;62.23;94559.91;6097913;23;20164;-85
2023/11/21 08:35:29;;;;;;;0.90;0.50;;;;;;;9.58;61.52;94558.59;6097945;23;20014;-85
2023/11/21 08:37:55;;;;;;;21.25;12.70;;;;;;;9.67;61.75;94554.09;6073018;23;20016;-85
2023/11/21 08:40:21;;;;;;;2.72;1.60;;;;;;;9.74;61.96;94551.53;6074023;23;20014;-84
2023/11/21 08:42:48;;;;;;;5.22;1.17;;;;;;;9.88;61.30;94568.84;6098582;23;20088;-85
2023/11/21 08:45:17;;;;;;;1.42;0.60;;;;;;;9.58;61.38;94568.19;6098473;23;20010;-85
2023/11/21 08:47:44;;;;;;;0.68;0.30;;;;;;;9.59;62.16;94568.00;6074154;23;20010;-85
2023/11/21 08:50:11;;;;;;;2.72;0.30;;;;;;;9.50;62.05;94576.09;6098258;23;20017;-85
2023/11/21 08:52:37;;;;;;;20.50;2.00;;;;;;;9.75;61.95;94564.34;6097997;23;20033;-84
2023/11/21 08:57:29;;;;;;;0.40;0.40;;;;;;;9.91;61.62;94571.03;6126213;23;20033;-85
2023/11/21 08:59:57;;;;;;;2.28;0.50;;;;;;;9.85;61.29;94587.38;6097970;23;20085;-85
2023/11/21 09:02:23;;;;;;;1.45;0.40;;;;;;;9.70;61.03;94573.69;6098002;23;20017;-85
2023/11/21 09:04:52;;;;;;;1.67;0.30;;;;;;;9.87;60.49;94587.19;6098173;23;20010;-85
2023/11/21 09:07:20;;;;;;;0.88;0.20;;;;;;;9.97;60.17;94585.06;6074770;23;20006;-85
2023/11/21 09:09:49;;;;;;;0.95;0.30;;;;;;;9.77;60.01;94567.53;6098136;23;20010;-86
2023/11/21 09:12:15;;;;;;;0.68;0.20;;;;;;;10.01;59.50;94565.50;6098702;23;20034;-84
2023/11/21 09:14:42;;;;;;;1.52;0.30;;;;;;;10.20;59.64;94573.63;6074616;23;20014;-85
2023/11/21 09:17:10;;;;;;;0.30;0.30;;;;;;;9.94;60.89;94581.06;6098336;23;20088;-84
2023/11/21 09:19:40;;;;;;;1.58;0.20;;;;;;;10.26;60.21;94584.06;6096861;23;20014;-85
2023/11/21 09:22:06;;;;;;;1.17;0.30;;;;;;;10.26;59.85;94589.28;6098338;23;20002;-85
2023/11/21 09:24:32;;;;;;;0.73;0.38;;;;;;;10.02;61.07;94593.09;6098058;23;20081;-84
2023/11/21 09:26:58;;;;;;;0.32;0.30;;;;;;;9.74;61.30;94583.50;6098601;23;20013;-85
2023/11/21 09:29:23;;;;;;;0.32;0.22;;;;;;;10.05;60.66;94595.34;6098752;23;20002;-84
2023/11/21 09:34:14;;;;;;;1.60;0.37;;;;;;;10.60;58.09;94581.66;6123039;23;20026;-85
2023/11/21 09:36:40;;;;;;;0.70;0.30;;;;;;;10.72;58.30;94580.13;6098068;23;20240;-84
2023/11/21 09:39:09;;;;;;;0.95;0.35;;;;;;;10.71;57.64;94588.91;6097025;23;20013;-85
2023/11/21 09:41:44;;;;;;;0.80;0.30;;;;;;;10.80;56.75;94597.38;6074590;23;20025;-85
2023/11/21 09:44:14;;;;;;;1.67;0.73;;;;;;;11.16;57.77;94597.09;6097611;23;20009;-85
2023/11/21 09:46:42;;;;;;;2.63;0.90;;;;;;;11.27;58.67;94590.50;6097530;23;20005;-85
2023/11/21 09:49:13;;;;;;;2.53;0.98;;;;;;;11.48;58.23;94598.16;6073096;23;20021;-85
2023/11/21 09:51:46;;;;;;;2.80;1.10;;;;;;;11.42;57.99;94592.94;6099343;23;20009;-85
2023/11/21 09:54:15;;;;;;;38.63;4.00;;;;;;;11.63;57.32;94591.97;6099709;23;20112;-85
2023/11/21 09:56:42;;;;;;;6.22;1.08;;;;;;;11.46;57.67;94599.34;6099622;23;20085;-85
2023/11/21 09:59:13;;;;;;;11.65;7.25;;;;;;;11.64;57.88;94596.97;6075154;23;20002;-85
2023/11/21 10:01:39;;;;;;;;;;;;;;;11.17;60.50;94588.28;6100730;23;20036;-85
2023/11/21 10:04:11;;;;;;;6.45;4.05;;;;;;;11.50;57.97;94588.34;6099684;23;19909;-84
2023/11/21 10:06:39;;;;;;;1.50;0.95;;;;;;;11.63;56.02;94591.97;6099703;23;20010;-85
2023/11/21 10:09:11;;;;;;;0.40;0.30;;;;;;;11.41;55.29;94591.34;6098479;23;20017;-84
2023/11/21 10:11:41;;;;;;;0.95;0.30;;;;;;;11.34;55.94;94597.31;6076234;23;20010;-85
2023/11/21 10:16:39;;;;;;;1.58;0.80;;;;;;;11.75;56.91;94592.97;6130569;23;20034;-85
2023/11/21 10:19:08;;;;;;;2.55;1.85;;;;;;;11.61;56.11;94578.34;6075868;23;20090;-85
2023/11/21 10:21:33;;;;;;;1.13;0.50;;;;;;;11.76;54.78;94583.34;6099538;23;20010;-84
2023/11/21 10:23:59;;;;;;;0.50;0.30;;;;;;;11.85;55.48;94588.16;6074685;23;20037;-85
2023/11/21 10:26:27;;;;;;;1.67;0.40;;;;;;;11.95;55.11;94593.00;6098597;23;20002;-85
2023/11/21 10:29:01;;;;;;;4.80;3.97;;;;;;;11.71;55.79;94576.16;6099001;23;20076;-86
2023/11/21 10:31:32;;;;;;;3.20;0.50;;;;;;;11.97;54.42;94564.94;6098444;23;20009;-86
2023/11/21 10:34:13;;;;;;;2.17;0.52;;;;;;;11.92;56.47;94580.38;6074972;23;20014;-85
2023/11/21 10:39:04;;;;;;;0.93;0.40;;;;;;;12.04;56.09;94557.91;6135466;23;20040;-86
2023/11/21 10:41:32;;;;;;;0.93;0.45;;;;;;;11.95;56.17;94576.56;6074838;23;20017;-85
2023/11/21 10:43:58;;;;;;;3.03;0.70;;;;;;;11.91;57.33;94576.97;6098639;23;20014;-85
2023/11/21 10:46:27;;;;;;;2.97;0.40;;;;;;;12.15;55.44;94576.53;6098708;23;20057;-85
2023/11/21 10:49:04;;;;;;;;;;;;;;;;;;;;;
2023/11/21 10:51:21;;;;;;;1.33;1.08;;;;;;;11.87;55.81;94564.53;6122436;23;20033;-85
2023/11/21 10:53:50;;;;;;;1.25;0.70;;;;;;;12.03;55.40;94571.13;6123339;23;20017;-85
2023/11/21 10:56:21;;;;;;;1.08;0.70;;;;;;;11.73;54.69;94559.31;6122797;23;20009;-87
2023/11/21 10:58:49;;;;;;;0.98;0.50;;;;;;;11.71;55.42;94576.94;6147266;23;19998;-85
2023/11/21 11:13:16;;;;;;;;;;;;;;;12.01;55.63;94571.34;6130963;23;20029;-85
2023/11/21 11:15:45;;;;;;;1.20;0.60;;;;;;;11.94;56.31;94562.75;6098917;23;19920;-85
2023/11/21 11:18:11;;;;;;;1.30;0.50;;;;;;;12.16;55.17;94575.53;6098213;23;20084;-85
2023/11/21 11:20:43;;;;;;;2.47;0.63;;;;;;;12.08;55.22;94569.53;6098157;23;20088;-85
2023/11/21 11:23:24;;;;;;;1.45;0.50;;;;;;;12.18;55.81;94568.31;6099238;23;20025;-85
2023/11/21 11:28:51;;;;;;;0.32;0.30;;;;;;;12.31;54.89;94563.06;6123523;23;20113;-85
2023/11/21 11:31:26;;;;;;;0.52;0.40;;;;;;;12.18;54.48;94570.94;6097994;23;20014;-85
2023/11/21 11:38:56;;;;;;;0.47;0.40;;;;;;;12.06;54.83;94558.50;6142723;23;20034;-85
2023/11/21 11:41:34;;;;;;;1.02;0.50;;;;;;;11.92;56.92;94551.72;6104143;23;20020;-85
2023/11/21 11:44:01;;;;;;;1.33;0.60;;;;;;;12.00;56.32;94554.13;6128624;23;20079;-85
2023/11/21 11:46:46;;;;;;;2.65;0.55;;;;;;;12.07;54.53;94567.13;6127858;23;20013;-85
2023/11/21 11:49:29;;;;;;;0.60;0.50;;;;;;;11.97;55.10;94557.13;6127839;23;20062;-85
2023/11/21 11:52:52;;;;;;;1.05;0.70;;;;;;;11.76;56.40;94560.69;6123818;23;20029;-87
2023/11/21 11:55:21;;;;;;;0.90;0.60;;;;;;;12.16;56.89;94555.47;6068273;23;20047;-86
2023/11/21 11:57:50;;;;;;;0.80;0.52;;;;;;;12.16;56.16;94563.31;6043799;23;20010;-86
2023/11/21 12:00:26;;;;;;;0.80;0.50;;;;;;;12.04;56.10;94555.31;6083864;23;20059;-86
2023/11/21 12:02:53;;;;;;;1.02;0.60;;;;;;;12.22;56.57;94552.09;6098857;23;20089;-86
2023/11/21 12:10:42;;;;;;;0.75;0.75;;;;;;;12.23;56.58;94547.66;6100171;23;20093;-83
2023/11/21 12:13:10;;;;;;;1.20;0.90;;;;;;;12.09;57.73;94550.28;6121726;23;20105;-83
2023/11/21 12:15:35;;;;;;;1.10;0.80;;;;;;;11.97;56.81;94557.13;6122957;23;20116;-83
2023/11/21 12:18:01;;;;;;;1.40;0.88;;;;;;;12.22;57.90;94551.25;6097422;23;20010;-84
2023/11/21 12:20:28;;;;;;;2.05;0.90;;;;;;;12.16;58.96;94555.47;6097693;23;20017;-83
2023/11/21 12:23:00;;;;;;;2.80;1.10;;;;;;;12.45;57.73;94551.63;6098448;23;20010;-83
2023/11/21 12:25:32;;;;;;;2.25;1.05;;;;;;;12.12;58.81;94557.69;6098231;23;20088;-84
2023/11/21 12:30:27;;;;;;;2.97;1.10;;;;;;;12.05;59.89;94569.13;6121650;23;20022;-84
2023/11/21 12:32:55;;;;;;;8.65;1.50;;;;;;;12.02;59.98;94557.31;6097626;23;20080;-86
2023/11/21 12:35:24;;;;;;;3.35;1.00;;;;;;;12.28;60.48;94572.13;6071829;23;20037;-87
2023/11/21 12:42:54;;;;;;;1.13;0.82;;;;;;;12.31;59.81;94556.06;6099666;23;20097;-84
2023/11/21 12:45:27;;;;;;;2.75;0.70;;;;;;;12.41;58.56;94560.84;6146952;23;20006;-84
2023/11/21 12:50:36;;;;;;;0.93;0.50;;;;;;;12.20;55.97;94567.09;6135941;23;20033;-84
2023/11/21 12:53:12;;;;;;;0.68;0.40;;;;;;;12.40;54.52;94566.28;6097309;23;20015;-84
2023/11/21 12:55:38;;;;;;;0.47;0.35;;;;;;;12.32;55.49;94562.09;6097505;23;20077;-84
2023/11/21 12:58:09;;;;;;;0.90;0.50;;;;;;;12.18;55.57;94573.53;6096315;23;20012;-84
2023/11/21 13:00:37;;;;;;;1.02;0.50;;;;;;;12.36;55.38;94576.31;6096766;23;20037;-84
2023/11/21 13:03:07;;;;;;;0.77;0.57;;;;;;;12.04;57.18;94564.94;6122855;23;20112;-85
2023/11/21 13:05:42;;;;;;;2.38;0.90;;;;;;;12.50;57.11;94570.03;6098060;23;20017;-85
2023/11/21 13:08:11;;;;;;;0.80;0.63;;;;;;;12.40;57.07;94566.28;6096955;23;20009;-84
2023/11/21 13:20:50;;;;;;;1.40;0.70;;;;;;;12.64;56.44;94575.22;6110313;23;20026;-84
2023/11/21 13:23:18;;;;;;;1.52;1.00;;;;;;;12.73;55.94;94566.16;6121200;23;20005;-85
2023/11/21 13:25:47;;;;;;;1.08;0.90;;;;;;;12.33;57.25;94581.94;6147732;23;20010;-84
2023/11/21 13:28:15;;;;;;;3.58;1.00;;;;;;;12.20;58.71;94580.13;6148390;23;20006;-84
2023/11/21 13:30:41;;;;;;;1.85;0.80;;;;;;;12.17;58.15;94574.56;6148276;23;20010;-87
2023/11/21 13:33:08;;;;;;;2.03;1.00;;;;;;;12.37;58.17;94583.13;6164385;23;20020;-84
2023/11/21 13:43:10;;;;;;;2.00;0.88;;;;;;;12.42;57.74;94588.53;6134422;23;20080;-85
2023/11/21 13:45:39;;;;;;;1.88;0.95;;;;;;;12.39;58.28;94590.75;6104174;23;20062;-84
2023/11/21 13:48:10;;;;;;;2.83;1.43;;;;;;;12.43;57.14;94591.94;6126902;23;20013;-85
2023/11/21 13:50:55;;;;;;;3.38;1.20;;;;;;;12.31;57.95;94586.53;6127661;23;20235;-85
2023/11/21 13:53:27;;;;;;;6.20;1.58;;;;;;;12.49;58.39;94594.53;6106457;23;20069;-85
2023/11/21 13:55:54;;;;;;;2.10;1.30;;;;;;;12.41;58.17;94594.75;6128112;23;20013;-84
2023/11/21 13:58:50;;;;;;;3.35;1.10;;;;;;;12.05;59.25;94598.63;6103231;23;20022;-85
2023/11/21 14:06:51;;;;;;;1.55;1.10;;;;;;;12.09;59.28;94601.63;6097363;23;20016;-84
2023/11/21 14:09:32;;;;;;;3.10;1.30;;;;;;;12.18;59.46;94604.81;6094011;23;20010;-85
2023/11/21 14:11:59;;;;;;;3.55;1.80;;;;;;;11.99;60.17;94615.03;6094612;23;20018;-85
2023/11/21 14:25:17;;;;;;;3.67;2.83;;;;;;;11.92;60.62;94620.28;6123457;23;20117;-86
2023/11/21 15:27:05;;;;;;;3.55;2.95;;;;;;;11.32;61.96;94650.59;6126855;23;20010;-85
2023/11/21 15:29:34;;;;;;;2.00;1.80;;;;;;;11.29;61.37;94666.59;6076170;23;20041;-86
2023/11/21 15:32:03;;;;;;;3.28;2.20;;;;;;;11.10;61.49;94670.72;6098948;23;20056;-85
2023/11/21 15:34:30;;;;;;;2.95;2.08;;;;;;;11.28;61.54;94676.22;6074308;23;20020;-85
2023/11/21 16:00:16;;;;;;;3.13;1.65;;;;;;;10.88;61.39;94696.84;6124794;23;20041;-86
2023/11/21 16:02:45;;;;;;;1.98;1.40;;;;;;;10.98;60.99;94698.31;6123801;23;20081;-85
2023/11/21 16:10:12;;;;;;;2.53;1.52;;;;;;;10.81;61.26;94709.00;6111726;23;20025;-85
2023/11/21 16:33:22;;;;;;;2.55;1.27;;;;;;;10.48;60.66;94722.59;6099595;23;20010;-86
2023/11/21 17:16:53;;;;;;;2.55;2.35;;;;;;;10.27;62.58;94764.22;6129568;23;20029;-86
2023/11/21 17:44:54;;;;;;;5.60;4.65;;;;;;;10.65;61.58;94784.75;6126581;23;20021;-86
2023/11/21 17:47:25;;;;;;;2.88;2.58;;;;;;;10.69;61.14;94788.59;6101496;23;20017;-85
2023/11/21 17:49:50;;;;;;;4.07;2.80;;;;;;;10.60;61.33;94779.31;6101901;23;20005;-86
2023/11/21 17:52:18;;;;;;;2.92;2.40;;;;;;;10.66;60.89;94778.53;6125824;23;20037;-86
2023/11/21 17:54:43;;;;;;;2.97;2.67;;;;;;;10.36;61.30;94776.13;6125959;23;20013;-87
2023/11/21 17:57:09;;;;;;;3.22;2.75;;;;;;;10.32;61.64;94783.47;6125588;23;20072;-86
2023/11/21 18:42:29;;;;;;;6.72;5.00;;;;;;;10.35;63.46;94824.69;6124292;23;20037;-85
2023/11/21 18:44:58;;;;;;;7.70;5.38;;;;;;;10.39;62.75;94832.94;6098400;23;20018;-86
2023/11/21 18:47:23;;;;;;;7.40;5.73;;;;;;;10.37;62.73;94827.91;6098133;23;20006;-86
2023/11/21 18:54:59;;;;;;;3.33;2.40;;;;;;;10.24;62.67;94845.94;6123814;23;20025;-86
2023/11/21 18:57:27;;;;;;;2.88;2.50;;;;;;;10.29;62.52;94848.00;6098220;23;20025;-85
2023/11/21 18:59:53;;;;;;;5.13;3.78;;;;;;;10.27;62.96;94845.59;6098380;23;20072;-86
2023/11/21 19:02:18;;;;;;;4.18;2.65;;;;;;;10.41;62.38;94846.53;6123356;23;20049;-85
2023/11/21 19:27:52;;;;;;;1.30;1.20;;;;;;;10.17;60.87;94863.28;6116616;23;20026;-86
2023/11/21 19:30:17;;;;;;;1.63;1.52;;;;;;;10.04;61.59;94861.34;6069390;23;20022;-86
2023/11/21 19:57:51;;;;;;;8.82;5.93;;;;;;;9.98;64.54;94901.03;6133777;23;20022;-87
2023/11/21 20:00:17;;;;;;;11.88;7.07;;;;;;;9.95;64.44;94904.78;6079249;23;20029;-86
2023/11/21 20:02:45;;;;;;;12.02;7.57;;;;;;;10.11;63.62;94906.41;6080810;23;20022;-86
2023/11/21 20:05:14;;;;;;;12.45;9.02;;;;;;;10.12;64.11;94917.59;6081471;23;20017;-86
2023/11/21 20:07:41;;;;;;;14.20;9.77;;;;;;;10.03;64.22;94909.06;6057877;23;20085;-86
2023/11/21 20:46:22;;;;;;;2.15;1.80;;;;;;;9.65;63.52;94966.31;6160888;23;20022;-86
2023/11/21 20:53:58;;;;;;;3.78;2.33;;;;;;;9.95;62.38;94969.75;6134655;23;20017;-85
2023/11/21 21:42:38;;;;;;;1.13;0.60;;;;;;;9.22;61.85;94971.28;6133051;23;20031;-85
2023/11/21 21:45:04;;;;;;;13.88;4.70;;;;;;;9.33;62.13;94983.03;6108196;23;20021;-86
2023/11/21 21:47:29;;;;;;;20.77;7.93;;;;;;;9.47;61.66;94992.63;6109072;23;20068;-85
2023/11/21 21:49:57;;;;;;;55.13;21.00;;;;;;;9.53;61.75;94981.53;6108733;23;20010;-86
2023/11/21 21:52:36;;;;;;;55.10;19.80;;;;;;;9.50;61.48;94991.47;6108827;23;20008;-86
2023/11/21 22:00:15;;;;;;;27.00;10.65;;;;;;;9.51;61.95;94991.28;6107976;23;20018;-85
2023/11/21 22:05:10;;;;;;;10.52;5.72;;;;;;;9.29;63.00;94990.34;6128378;23;20086;-86
2023/11/21 22:07:36;;;;;;;14.38;8.52;;;;;;;9.40;62.93;94986.53;6077048;23;20021;-85
2023/11/21 22:10:01;;;;;;;22.60;12.90;;;;;;;9.44;62.83;94994.75;6054119;23;20014;-85
2023/11/21 22:12:29;;;;;;;13.95;7.82;;;;;;;9.56;62.37;94999.38;6054708;23;20026;-85
2023/11/21 22:19:58;;;;;;;1.60;1.10;;;;;;;9.03;64.12;95003.69;6122036;23;20072;-85
2023/11/21 22:22:23;;;;;;;1.48;0.95;;;;;;;9.05;63.68;95012.09;6106794;23;20009;-86
2023/11/21 22:24:50;;;;;;;4.60;1.70;;;;;;;9.25;63.26;95016.81;6102550;23;20010;-85
